sensor_id;sensor_type;location;lat;lon;timestamp;P1;durP1;ratioP1;P2;durP2;ratioP2
16624;SDS011;8426;48.496;9.098;2023-05-14T00:01:47;10.80;;;6.82;;
16624;SDS011;8426;48.496;9.098;2023-05-14T00:06:53;11.50;;;7.22;;
16624;SDS011;8426;48.496;9.098;2023-05-14T00:11:58;15.50;;;7.57;;
16624;SDS011;8426;48.496;9.098;2023-05-14T00:17:01;11.73;;;7.65;;
16624;SDS011;8426;48.496;9.098;2023-05-14T00:22:04;9.50;;;6.65;;
16624;SDS011;8426;48.496;9.098;2023-05-14T00:27:09;12.32;;;7.88;;
16624;SDS011;8426;48.496;9.098;2023-05-14T00:32:14;11.18;;;6.93;;
16624;SDS011;8426;48.496;9.098;2023-05-14T00:37:19;11.85;;;6.90;;
16624;SDS011;8426;48.496;9.098;2023-05-14T00:42:24;13.35;;;7.75;;
16624;SDS011;8426;48.496;9.098;2023-05-14T00:47:30;10.63;;;7.50;;
16624;SDS011;8426;48.496;9.098;2023-05-14T00:52:36;16.42;;;8.20;;
16624;SDS011;8426;48.496;9.098;2023-05-14T00:57:41;14.30;;;7.72;;
16624;SDS011;8426;48.496;9.098;2023-05-14T01:02:51;12.13;;;7.88;;
16624;SDS011;8426;48.496;9.098;2023-05-14T01:08:01;13.40;;;7.80;;
16624;SDS011;8426;48.496;9.098;2023-05-14T01:13:15;14.63;;;8.50;;
16624;SDS011;8426;48.496;9.098;2023-05-14T01:18:24;14.63;;;8.10;;
16624;SDS011;8426;48.496;9.098;2023-05-14T01:23:38;12.93;;;8.07;;
16624;SDS011;8426;48.496;9.098;2023-05-14T01:28:45;11.95;;;7.72;;
16624;SDS011;8426;48.496;9.098;2023-05-14T01:33:52;11.95;;;7.35;;
16624;SDS011;8426;48.496;9.098;2023-05-14T01:44:38;11.75;;;7.07;;
16624;SDS011;8426;48.496;9.098;2023-05-14T01:49:42;11.43;;;6.55;;
16624;SDS011;8426;48.496;9.098;2023-05-14T01:54:47;10.85;;;6.50;;
16624;SDS011;8426;48.496;9.098;2023-05-14T01:59:51;11.30;;;6.72;;
16624;SDS011;8426;48.496;9.098;2023-05-14T02:04:55;10.68;;;7.15;;
16624;SDS011;8426;48.496;9.098;2023-05-14T02:10:08;12.45;;;7.38;;
16624;SDS011;8426;48.496;9.098;2023-05-14T02:15:14;11.80;;;7.30;;
16624;SDS011;8426;48.496;9.098;2023-05-14T02:20:19;11.05;;;7.13;;
16624;SDS011;8426;48.496;9.098;2023-05-14T02:25:25;10.35;;;6.32;;
16624;SDS011;8426;48.496;9.098;2023-05-14T02:30:31;15.25;;;6.15;;
16624;SDS011;8426;48.496;9.098;2023-05-14T02:35:36;10.65;;;6.25;;
16624;SDS011;8426;48.496;9.098;2023-05-14T02:40:47;10.05;;;6.18;;
16624;SDS011;8426;48.496;9.098;2023-05-14T02:45:51;9.88;;;6.10;;
16624;SDS011;8426;48.496;9.098;2023-05-14T02:50:55;9.60;;;6.07;;
16624;SDS011;8426;48.496;9.098;2023-05-14T02:56:06;13.05;;;6.35;;
16624;SDS011;8426;48.496;9.098;2023-05-14T03:01:10;9.80;;;6.63;;
16624;SDS011;8426;48.496;9.098;2023-05-14T03:06:22;10.45;;;6.78;;
16624;SDS011;8426;48.496;9.098;2023-05-14T03:11:32;12.98;;;6.57;;
16624;SDS011;8426;48.496;9.098;2023-05-14T03:16:36;9.75;;;6.53;;
16624;SDS011;8426;48.496;9.098;2023-05-14T03:21:40;12.05;;;6.63;;
16624;SDS011;8426;48.496;9.098;2023-05-14T03:26:46;9.52;;;6.05;;
16624;SDS011;8426;48.496;9.098;2023-05-14T03:31:53;10.43;;;6.65;;
16624;SDS011;8426;48.496;9.098;2023-05-14T03:37:07;11.40;;;5.55;;
16624;SDS011;8426;48.496;9.098;2023-05-14T03:42:12;10.50;;;5.68;;
16624;SDS011;8426;48.496;9.098;2023-05-14T03:47:15;10.25;;;6.47;;
16624;SDS011;8426;48.496;9.098;2023-05-14T03:52:19;10.27;;;6.32;;
16624;SDS011;8426;48.496;9.098;2023-05-14T03:57:33;9.93;;;6.43;;
16624;SDS011;8426;48.496;9.098;2023-05-14T04:02:37;9.20;;;6.43;;
16624;SDS011;8426;48.496;9.098;2023-05-14T04:07:45;11.98;;;7.32;;
16624;SDS011;8426;48.496;9.098;2023-05-14T04:12:50;12.23;;;6.60;;
16624;SDS011;8426;48.496;9.098;2023-05-14T04:17:55;9.32;;;6.13;;
16624;SDS011;8426;48.496;9.098;2023-05-14T04:23:00;9.45;;;5.85;;
16624;SDS011;8426;48.496;9.098;2023-05-14T04:28:06;8.55;;;5.75;;
16624;SDS011;8426;48.496;9.098;2023-05-14T04:33:10;13.75;;;6.70;;
16624;SDS011;8426;48.496;9.098;2023-05-14T04:38:17;8.43;;;5.80;;
16624;SDS011;8426;48.496;9.098;2023-05-14T04:43:22;9.40;;;6.10;;
16624;SDS011;8426;48.496;9.098;2023-05-14T04:48:27;11.40;;;6.22;;
16624;SDS011;8426;48.496;9.098;2023-05-14T04:53:33;8.23;;;5.60;;
16624;SDS011;8426;48.496;9.098;2023-05-14T04:58:38;9.80;;;6.47;;
16624;SDS011;8426;48.496;9.098;2023-05-14T05:03:41;12.25;;;6.78;;
16624;SDS011;8426;48.496;9.098;2023-05-14T05:08:45;11.10;;;7.00;;
16624;SDS011;8426;48.496;9.098;2023-05-14T05:13:50;11.82;;;6.80;;
16624;SDS011;8426;48.496;9.098;2023-05-14T05:18:53;9.20;;;6.45;;
16624;SDS011;8426;48.496;9.098;2023-05-14T05:23:58;13.48;;;7.15;;
16624;SDS011;8426;48.496;9.098;2023-05-14T05:29:04;12.80;;;6.95;;
16624;SDS011;8426;48.496;9.098;2023-05-14T05:34:07;9.18;;;6.18;;
16624;SDS011;8426;48.496;9.098;2023-05-14T05:39:13;8.38;;;6.35;;
16624;SDS011;8426;48.496;9.098;2023-05-14T05:44:21;10.07;;;6.05;;
16624;SDS011;8426;48.496;9.098;2023-05-14T05:49:25;9.25;;;6.18;;
16624;SDS011;8426;48.496;9.098;2023-05-14T05:54:29;9.35;;;6.25;;
16624;SDS011;8426;48.496;9.098;2023-05-14T05:59:38;8.55;;;6.00;;
16624;SDS011;8426;48.496;9.098;2023-05-14T06:04:44;10.35;;;6.15;;
16624;SDS011;8426;48.496;9.098;2023-05-14T06:09:48;9.85;;;6.38;;
16624;SDS011;8426;48.496;9.098;2023-05-14T06:14:54;15.25;;;6.07;;
16624;SDS011;8426;48.496;9.098;2023-05-14T06:19:59;9.32;;;6.40;;
16624;SDS011;8426;48.496;9.098;2023-05-14T06:25:05;10.63;;;6.68;;
16624;SDS011;8426;48.496;9.098;2023-05-14T06:30:12;11.65;;;6.88;;
16624;SDS011;8426;48.496;9.098;2023-05-14T06:35:19;13.90;;;6.32;;
16624;SDS011;8426;48.496;9.098;2023-05-14T06:40:23;10.73;;;6.40;;
16624;SDS011;8426;48.496;9.098;2023-05-14T06:45:32;10.57;;;6.03;;
16624;SDS011;8426;48.496;9.098;2023-05-14T06:51:09;9.27;;;5.72;;
16624;SDS011;8426;48.496;9.098;2023-05-14T06:57:11;10.30;;;6.20;;
16624;SDS011;8426;48.496;9.098;2023-05-14T07:02:20;12.98;;;6.53;;
16624;SDS011;8426;48.496;9.098;2023-05-14T07:07:27;11.50;;;6.10;;
16624;SDS011;8426;48.496;9.098;2023-05-14T07:12:36;9.65;;;6.50;;
16624;SDS011;8426;48.496;9.098;2023-05-14T07:17:48;11.02;;;6.57;;
16624;SDS011;8426;48.496;9.098;2023-05-14T07:22:53;9.25;;;6.10;;
16624;SDS011;8426;48.496;9.098;2023-05-14T07:27:57;9.65;;;6.78;;
16624;SDS011;8426;48.496;9.098;2023-05-14T07:33:02;8.27;;;5.38;;
16624;SDS011;8426;48.496;9.098;2023-05-14T07:38:07;10.98;;;7.03;;
16624;SDS011;8426;48.496;9.098;2023-05-14T07:43:11;12.20;;;7.80;;
16624;SDS011;8426;48.496;9.098;2023-05-14T07:48:17;11.77;;;7.63;;
16624;SDS011;8426;48.496;9.098;2023-05-14T07:53:20;11.85;;;8.10;;
16624;SDS011;8426;48.496;9.098;2023-05-14T07:58:24;11.80;;;8.07;;
16624;SDS011;8426;48.496;9.098;2023-05-14T08:03:31;11.90;;;7.95;;
16624;SDS011;8426;48.496;9.098;2023-05-14T08:08:36;13.50;;;7.78;;
16624;SDS011;8426;48.496;9.098;2023-05-14T08:13:40;10.70;;;7.05;;
16624;SDS011;8426;48.496;9.098;2023-05-14T08:18:44;11.23;;;7.35;;
16624;SDS011;8426;48.496;9.098;2023-05-14T08:23:52;12.38;;;6.88;;
16624;SDS011;8426;48.496;9.098;2023-05-14T08:29:01;9.02;;;5.50;;
16624;SDS011;8426;48.496;9.098;2023-05-14T08:34:06;13.25;;;5.80;;
16624;SDS011;8426;48.496;9.098;2023-05-14T08:39:10;9.18;;;5.53;;
16624;SDS011;8426;48.496;9.098;2023-05-14T08:44:15;7.53;;;5.22;;
16624;SDS011;8426;48.496;9.098;2023-05-14T08:49:27;9.00;;;5.53;;
16624;SDS011;8426;48.496;9.098;2023-05-14T08:54:46;12.32;;;5.43;;
16624;SDS011;8426;48.496;9.098;2023-05-14T09:00:03;8.70;;;5.22;;
16624;SDS011;8426;48.496;9.098;2023-05-14T09:05:17;7.68;;;4.75;;
16624;SDS011;8426;48.496;9.098;2023-05-14T09:10:26;9.38;;;5.50;;
16624;SDS011;8426;48.496;9.098;2023-05-14T09:15:30;8.90;;;5.72;;
16624;SDS011;8426;48.496;9.098;2023-05-14T09:20:38;10.50;;;6.60;;
16624;SDS011;8426;48.496;9.098;2023-05-14T09:25:44;8.32;;;5.47;;
16624;SDS011;8426;48.496;9.098;2023-05-14T09:30:56;9.85;;;5.90;;
16624;SDS011;8426;48.496;9.098;2023-05-14T09:36:04;9.02;;;5.78;;
16624;SDS011;8426;48.496;9.098;2023-05-14T09:41:12;8.55;;;5.20;;
16624;SDS011;8426;48.496;9.098;2023-05-14T09:46:17;8.68;;;5.75;;
16624;SDS011;8426;48.496;9.098;2023-05-14T09:51:22;7.03;;;4.78;;
16624;SDS011;8426;48.496;9.098;2023-05-14T09:56:26;7.63;;;5.40;;
16624;SDS011;8426;48.496;9.098;2023-05-14T10:01:33;11.43;;;5.18;;
16624;SDS011;8426;48.496;9.098;2023-05-14T10:06:41;7.90;;;4.97;;
16624;SDS011;8426;48.496;9.098;2023-05-14T10:11:58;7.70;;;4.75;;
16624;SDS011;8426;48.496;9.098;2023-05-14T10:17:03;7.85;;;5.03;;
16624;SDS011;8426;48.496;9.098;2023-05-14T10:22:26;6.90;;;4.50;;
16624;SDS011;8426;48.496;9.098;2023-05-14T10:27:35;8.57;;;5.03;;
16624;SDS011;8426;48.496;9.098;2023-05-14T10:32:41;6.78;;;4.63;;
16624;SDS011;8426;48.496;9.098;2023-05-14T10:37:51;9.10;;;5.20;;
16624;SDS011;8426;48.496;9.098;2023-05-14T10:43:07;7.47;;;4.18;;
16624;SDS011;8426;48.496;9.098;2023-05-14T10:48:14;7.68;;;4.13;;
16624;SDS011;8426;48.496;9.098;2023-05-14T10:53:30;7.43;;;4.07;;
16624;SDS011;8426;48.496;9.098;2023-05-14T10:58:38;7.22;;;4.30;;
16624;SDS011;8426;48.496;9.098;2023-05-14T11:03:45;4.80;;;3.38;;
16624;SDS011;8426;48.496;9.098;2023-05-14T11:08:54;4.43;;;3.33;;
16624;SDS011;8426;48.496;9.098;2023-05-14T11:13:58;4.60;;;3.22;;
16624;SDS011;8426;48.496;9.098;2023-05-14T11:19:03;10.23;;;3.25;;
16624;SDS011;8426;48.496;9.098;2023-05-14T11:24:13;4.70;;;2.80;;
16624;SDS011;8426;48.496;9.098;2023-05-14T11:29:42;3.85;;;2.92;;
16624;SDS011;8426;48.496;9.098;2023-05-14T11:35:16;9.80;;;4.00;;
16624;SDS011;8426;48.496;9.098;2023-05-14T11:40:30;8.68;;;4.88;;
16624;SDS011;8426;48.496;9.098;2023-05-14T11:45:38;8.20;;;5.32;;
16624;SDS011;8426;48.496;9.098;2023-05-14T11:50:52;5.05;;;2.83;;
16624;SDS011;8426;48.496;9.098;2023-05-14T11:56:21;3.90;;;2.70;;
16624;SDS011;8426;48.496;9.098;2023-05-14T12:01:35;3.83;;;3.08;;
16624;SDS011;8426;48.496;9.098;2023-05-14T12:06:43;5.70;;;3.10;;
16624;SDS011;8426;48.496;9.098;2023-05-14T12:11:58;5.32;;;2.20;;
16624;SDS011;8426;48.496;9.098;2023-05-14T12:17:17;3.70;;;2.58;;
16624;SDS011;8426;48.496;9.098;2023-05-14T12:22:33;4.20;;;2.58;;
16624;SDS011;8426;48.496;9.098;2023-05-14T12:27:49;4.13;;;2.92;;
16624;SDS011;8426;48.496;9.098;2023-05-14T12:33:02;6.05;;;3.58;;
16624;SDS011;8426;48.496;9.098;2023-05-14T12:38:16;5.38;;;3.10;;
16624;SDS011;8426;48.496;9.098;2023-05-14T12:43:23;7.40;;;3.35;;
16624;SDS011;8426;48.496;9.098;2023-05-14T12:48:36;6.03;;;3.67;;
16624;SDS011;8426;48.496;9.098;2023-05-14T12:53:54;4.40;;;2.83;;
16624;SDS011;8426;48.496;9.098;2023-05-14T12:59:14;5.20;;;3.20;;
16624;SDS011;8426;48.496;9.098;2023-05-14T13:04:31;3.25;;;2.15;;
16624;SDS011;8426;48.496;9.098;2023-05-14T13:09:37;2.80;;;2.08;;
16624;SDS011;8426;48.496;9.098;2023-05-14T13:14:45;5.25;;;2.50;;
16624;SDS011;8426;48.496;9.098;2023-05-14T13:20:03;3.33;;;2.10;;
16624;SDS011;8426;48.496;9.098;2023-05-14T13:25:10;4.43;;;2.42;;
16624;SDS011;8426;48.496;9.098;2023-05-14T13:30:16;5.70;;;2.30;;
16624;SDS011;8426;48.496;9.098;2023-05-14T13:40:51;6.35;;;3.05;;
16624;SDS011;8426;48.496;9.098;2023-05-14T13:45:59;3.22;;;2.45;;
16624;SDS011;8426;48.496;9.098;2023-05-14T13:51:05;5.13;;;2.65;;
16624;SDS011;8426;48.496;9.098;2023-05-14T13:56:12;3.75;;;2.25;;
16624;SDS011;8426;48.496;9.098;2023-05-14T14:01:21;3.05;;;1.50;;
16624;SDS011;8426;48.496;9.098;2023-05-14T14:06:29;3.42;;;2.40;;
16624;SDS011;8426;48.496;9.098;2023-05-14T14:11:33;2.90;;;1.75;;
16624;SDS011;8426;48.496;9.098;2023-05-14T14:16:38;3.50;;;2.53;;
16624;SDS011;8426;48.496;9.098;2023-05-14T14:21:43;4.85;;;1.80;;
16624;SDS011;8426;48.496;9.098;2023-05-14T14:26:47;3.33;;;1.98;;
16624;SDS011;8426;48.496;9.098;2023-05-14T14:32:19;5.38;;;2.25;;
16624;SDS011;8426;48.496;9.098;2023-05-14T14:37:22;3.00;;;2.03;;
16624;SDS011;8426;48.496;9.098;2023-05-14T14:42:27;4.45;;;2.60;;
16624;SDS011;8426;48.496;9.098;2023-05-14T14:47:32;4.35;;;2.00;;
16624;SDS011;8426;48.496;9.098;2023-05-14T14:52:43;9.65;;;2.40;;
16624;SDS011;8426;48.496;9.098;2023-05-14T14:57:48;6.10;;;2.80;;
16624;SDS011;8426;48.496;9.098;2023-05-14T15:02:55;8.88;;;3.10;;
16624;SDS011;8426;48.496;9.098;2023-05-14T15:08:00;6.28;;;2.80;;
16624;SDS011;8426;48.496;9.098;2023-05-14T15:13:05;6.28;;;2.42;;
16624;SDS011;8426;48.496;9.098;2023-05-14T15:18:10;2.90;;;2.15;;
16624;SDS011;8426;48.496;9.098;2023-05-14T15:23:15;5.47;;;3.15;;
16624;SDS011;8426;48.496;9.098;2023-05-14T15:28:25;4.72;;;3.22;;
16624;SDS011;8426;48.496;9.098;2023-05-14T15:33:30;4.13;;;2.97;;
16624;SDS011;8426;48.496;9.098;2023-05-14T15:38:36;7.45;;;2.80;;
16624;SDS011;8426;48.496;9.098;2023-05-14T15:43:43;3.75;;;2.60;;
16624;SDS011;8426;48.496;9.098;2023-05-14T15:48:49;5.03;;;2.92;;
16624;SDS011;8426;48.496;9.098;2023-05-14T15:53:53;5.15;;;3.30;;
16624;SDS011;8426;48.496;9.098;2023-05-14T15:58:59;4.03;;;3.25;;
16624;SDS011;8426;48.496;9.098;2023-05-14T16:04:09;5.35;;;3.28;;
16624;SDS011;8426;48.496;9.098;2023-05-14T16:09:14;4.88;;;2.88;;
16624;SDS011;8426;48.496;9.098;2023-05-14T16:14:19;4.90;;;2.95;;
16624;SDS011;8426;48.496;9.098;2023-05-14T16:19:29;9.82;;;3.17;;
16624;SDS011;8426;48.496;9.098;2023-05-14T16:24:35;3.67;;;2.67;;
16624;SDS011;8426;48.496;9.098;2023-05-14T16:29:50;5.28;;;3.03;;
16624;SDS011;8426;48.496;9.098;2023-05-14T16:34:57;8.40;;;3.15;;
16624;SDS011;8426;48.496;9.098;2023-05-14T16:40:07;5.55;;;2.75;;
16624;SDS011;8426;48.496;9.098;2023-05-14T16:45:13;6.45;;;3.10;;
16624;SDS011;8426;48.496;9.098;2023-05-14T16:50:19;4.90;;;2.70;;
16624;SDS011;8426;48.496;9.098;2023-05-14T16:55:26;4.63;;;3.13;;
16624;SDS011;8426;48.496;9.098;2023-05-14T17:00:30;6.55;;;3.42;;
16624;SDS011;8426;48.496;9.098;2023-05-14T17:05:37;8.77;;;2.75;;
16624;SDS011;8426;48.496;9.098;2023-05-14T17:10:42;4.18;;;2.60;;
16624;SDS011;8426;48.496;9.098;2023-05-14T17:15:47;8.73;;;3.40;;
16624;SDS011;8426;48.496;9.098;2023-05-14T17:20:54;7.43;;;3.00;;
16624;SDS011;8426;48.496;9.098;2023-05-14T17:26:01;4.30;;;2.95;;
16624;SDS011;8426;48.496;9.098;2023-05-14T17:31:28;5.35;;;3.28;;
16624;SDS011;8426;48.496;9.098;2023-05-14T17:36:34;5.43;;;3.30;;
16624;SDS011;8426;48.496;9.098;2023-05-14T17:41:42;7.47;;;3.08;;
16624;SDS011;8426;48.496;9.098;2023-05-14T17:46:47;4.88;;;3.03;;
16624;SDS011;8426;48.496;9.098;2023-05-14T17:51:54;7.80;;;3.47;;
16624;SDS011;8426;48.496;9.098;2023-05-14T17:57:04;4.65;;;3.00;;
16624;SDS011;8426;48.496;9.098;2023-05-14T18:02:08;4.63;;;3.10;;
16624;SDS011;8426;48.496;9.098;2023-05-14T18:07:15;7.93;;;3.97;;
16624;SDS011;8426;48.496;9.098;2023-05-14T18:12:19;6.95;;;3.30;;
16624;SDS011;8426;48.496;9.098;2023-05-14T18:17:22;10.75;;;3.85;;
16624;SDS011;8426;48.496;9.098;2023-05-14T18:22:27;5.10;;;3.15;;
16624;SDS011;8426;48.496;9.098;2023-05-14T18:27:31;4.43;;;3.03;;
16624;SDS011;8426;48.496;9.098;2023-05-14T18:32:37;4.47;;;3.08;;
16624;SDS011;8426;48.496;9.098;2023-05-14T18:37:42;5.35;;;3.40;;
16624;SDS011;8426;48.496;9.098;2023-05-14T18:42:45;4.82;;;3.20;;
16624;SDS011;8426;48.496;9.098;2023-05-14T18:47:53;6.07;;;2.67;;
16624;SDS011;8426;48.496;9.098;2023-05-14T18:52:58;5.68;;;2.58;;
16624;SDS011;8426;48.496;9.098;2023-05-14T18:58:02;5.38;;;3.00;;
16624;SDS011;8426;48.496;9.098;2023-05-14T19:03:07;4.95;;;3.50;;
16624;SDS011;8426;48.496;9.098;2023-05-14T19:08:14;5.95;;;3.70;;
16624;SDS011;8426;48.496;9.098;2023-05-14T19:13:17;6.88;;;3.47;;
16624;SDS011;8426;48.496;9.098;2023-05-14T19:18:22;5.20;;;3.30;;
16624;SDS011;8426;48.496;9.098;2023-05-14T19:23:30;4.43;;;3.47;;
16624;SDS011;8426;48.496;9.098;2023-05-14T19:28:34;8.75;;;4.07;;
16624;SDS011;8426;48.496;9.098;2023-05-14T19:33:40;5.95;;;3.90;;
16624;SDS011;8426;48.496;9.098;2023-05-14T19:38:47;6.25;;;4.03;;
16624;SDS011;8426;48.496;9.098;2023-05-14T19:43:52;8.88;;;4.45;;
16624;SDS011;8426;48.496;9.098;2023-05-14T19:48:57;8.15;;;5.00;;
16624;SDS011;8426;48.496;9.098;2023-05-14T19:54:03;7.13;;;4.60;;
16624;SDS011;8426;48.496;9.098;2023-05-14T19:59:08;6.25;;;3.78;;
16624;SDS011;8426;48.496;9.098;2023-05-14T20:04:13;8.55;;;3.97;;
16624;SDS011;8426;48.496;9.098;2023-05-14T20:09:18;6.47;;;3.97;;
16624;SDS011;8426;48.496;9.098;2023-05-14T20:14:22;4.88;;;3.25;;
16624;SDS011;8426;48.496;9.098;2023-05-14T20:19:25;5.35;;;3.80;;
16624;SDS011;8426;48.496;9.098;2023-05-14T20:24:30;6.25;;;3.50;;
16624;SDS011;8426;48.496;9.098;2023-05-14T20:29:35;7.55;;;3.55;;
16624;SDS011;8426;48.496;9.098;2023-05-14T20:34:39;4.05;;;3.22;;
16624;SDS011;8426;48.496;9.098;2023-05-14T20:40:03;5.93;;;3.38;;
16624;SDS011;8426;48.496;9.098;2023-05-14T20:45:23;6.78;;;3.20;;
16624;SDS011;8426;48.496;9.098;2023-05-14T20:50:28;6.90;;;3.58;;
16624;SDS011;8426;48.496;9.098;2023-05-14T20:55:35;8.07;;;4.10;;
16624;SDS011;8426;48.496;9.098;2023-05-14T21:00:41;8.55;;;4.55;;
16624;SDS011;8426;48.496;9.098;2023-05-14T21:05:45;9.43;;;5.07;;
16624;SDS011;8426;48.496;9.098;2023-05-14T21:10:50;6.20;;;4.60;;
16624;SDS011;8426;48.496;9.098;2023-05-14T21:15:53;10.40;;;5.40;;
16624;SDS011;8426;48.496;9.098;2023-05-14T21:26:09;7.22;;;5.18;;
16624;SDS011;8426;48.496;9.098;2023-05-14T21:31:17;8.70;;;5.25;;
16624;SDS011;8426;48.496;9.098;2023-05-14T21:36:21;8.82;;;5.47;;
16624;SDS011;8426;48.496;9.098;2023-05-14T21:41:27;9.02;;;5.03;;
16624;SDS011;8426;48.496;9.098;2023-05-14T21:46:32;8.00;;;4.68;;
16624;SDS011;8426;48.496;9.098;2023-05-14T21:51:42;8.35;;;4.97;;
16624;SDS011;8426;48.496;9.098;2023-05-14T21:56:49;11.20;;;5.25;;
16624;SDS011;8426;48.496;9.098;2023-05-14T22:01:52;6.57;;;4.18;;
16624;SDS011;8426;48.496;9.098;2023-05-14T22:07:08;9.43;;;5.30;;
16624;SDS011;8426;48.496;9.098;2023-05-14T22:12:14;7.68;;;4.70;;
16624;SDS011;8426;48.496;9.098;2023-05-14T22:17:21;6.68;;;4.28;;
16624;SDS011;8426;48.496;9.098;2023-05-14T22:22:25;8.63;;;4.18;;
16624;SDS011;8426;48.496;9.098;2023-05-14T22:27:30;6.07;;;4.18;;
16624;SDS011;8426;48.496;9.098;2023-05-14T22:32:35;8.30;;;4.57;;
16624;SDS011;8426;48.496;9.098;2023-05-14T22:37:38;7.70;;;4.50;;
16624;SDS011;8426;48.496;9.098;2023-05-14T22:42:43;6.15;;;4.03;;
16624;SDS011;8426;48.496;9.098;2023-05-14T22:47:49;7.35;;;4.68;;
16624;SDS011;8426;48.496;9.098;2023-05-14T22:58:07;6.65;;;3.65;;
16624;SDS011;8426;48.496;9.098;2023-05-14T23:03:10;5.50;;;3.42;;
16624;SDS011;8426;48.496;9.098;2023-05-14T23:08:14;5.60;;;3.63;;
16624;SDS011;8426;48.496;9.098;2023-05-14T23:13:19;5.78;;;3.85;;
16624;SDS011;8426;48.496;9.098;2023-05-14T23:18:22;6.35;;;4.20;;
16624;SDS011;8426;48.496;9.098;2023-05-14T23:23:26;5.10;;;3.58;;
16624;SDS011;8426;48.496;9.098;2023-05-14T23:28:31;6.88;;;3.95;;
16624;SDS011;8426;48.496;9.098;2023-05-14T23:33:38;9.75;;;4.00;;
16624;SDS011;8426;48.496;9.098;2023-05-14T23:38:41;6.72;;;4.22;;
16624;SDS011;8426;48.496;9.098;2023-05-14T23:43:47;6.80;;;3.63;;
16624;SDS011;8426;48.496;9.098;2023-05-14T23:48:53;5.15;;;3.53;;
16624;SDS011;8426;48.496;9.098;2023-05-14T23:54:04;6.65;;;4.25;;
16624;SDS011;8426;48.496;9.098;2023-05-14T23:59:09;11.82;;;4.15;;
